sensor_id;sensor_type;location;lat;lon;timestamp;pressure;altitude;pressure_sealevel;temperature;humidity
81812;BME280;71243;51.848;5.768;2023-07-29T00:00:49;100814.16;;;19.31;80.11
81812;BME280;71243;51.848;5.768;2023-07-29T00:03:15;100818.72;;;19.30;80.54
81812;BME280;71243;51.848;5.768;2023-07-29T00:05:40;100811.25;;;19.26;80.43
81812;BME280;71243;51.848;5.768;2023-07-29T00:08:05;100809.59;;;19.18;80.38
81812;BME280;71243;51.848;5.768;2023-07-29T00:10:32;100804.22;;;19.18;80.72
81812;BME280;71243;51.848;5.768;2023-07-29T00:12:58;100796.81;;;19.20;80.25
81812;BME280;71243;51.848;5.768;2023-07-29T00:15:23;100793.94;;;19.22;80.18
81812;BME280;71243;51.848;5.768;2023-07-29T00:17:48;100780.16;;;19.25;79.92
81812;BME280;71243;51.848;5.768;2023-07-29T00:20:14;100775.19;;;19.22;80.18
81812;BME280;71243;51.848;5.768;2023-07-29T00:22:39;100764.03;;;19.18;79.91
81812;BME280;71243;51.848;5.768;2023-07-29T00:25:04;100773.13;;;19.17;79.83
81812;BME280;71243;51.848;5.768;2023-07-29T00:27:30;100772.91;;;19.12;79.87
81812;BME280;71243;51.848;5.768;2023-07-29T00:29:55;100769.41;;;19.12;79.92
81812;BME280;71243;51.848;5.768;2023-07-29T00:32:20;100755.41;;;19.10;79.98
81812;BME280;71243;51.848;5.768;2023-07-29T00:34:45;100754.38;;;19.11;80.02
81812;BME280;71243;51.848;5.768;2023-07-29T00:37:10;100744.69;;;19.03;80.33
81812;BME280;71243;51.848;5.768;2023-07-29T00:39:36;100749.84;;;18.92;80.95
81812;BME280;71243;51.848;5.768;2023-07-29T00:42:01;100755.16;;;18.79;82.27
81812;BME280;71243;51.848;5.768;2023-07-29T00:44:26;100749.59;;;18.74;81.37
81812;BME280;71243;51.848;5.768;2023-07-29T00:46:53;100762.34;;;18.72;82.06
81812;BME280;71243;51.848;5.768;2023-07-29T00:49:20;100764.63;;;18.62;82.86
81812;BME280;71243;51.848;5.768;2023-07-29T00:51:45;100778.78;;;18.62;82.68
81812;BME280;71243;51.848;5.768;2023-07-29T00:54:11;100770.19;;;18.67;82.30
81812;BME280;71243;51.848;5.768;2023-07-29T00:56:36;100772.66;;;18.68;82.01
81812;BME280;71243;51.848;5.768;2023-07-29T00:59:03;100781.72;;;18.67;82.32
81812;BME280;71243;51.848;5.768;2023-07-29T01:01:28;100783.34;;;18.68;81.78
81812;BME280;71243;51.848;5.768;2023-07-29T01:03:54;100787.06;;;18.67;82.10
81812;BME280;71243;51.848;5.768;2023-07-29T01:06:40;100783.97;;;18.70;81.89
81812;BME280;71243;51.848;5.768;2023-07-29T01:09:31;100780.69;;;18.68;81.43
81812;BME280;71243;51.848;5.768;2023-07-29T01:12:10;100772.44;;;18.70;81.52
81812;BME280;71243;51.848;5.768;2023-07-29T01:17:26;100765.66;;;18.67;82.78
81812;BME280;71243;51.848;5.768;2023-07-29T01:22:25;100761.25;;;18.46;83.53
81812;BME280;71243;51.848;5.768;2023-07-29T01:24:51;100748.31;;;18.50;83.05
81812;BME280;71243;51.848;5.768;2023-07-29T01:27:16;100745.25;;;18.53;82.44
81812;BME280;71243;51.848;5.768;2023-07-29T01:29:42;100738.84;;;18.54;82.59
81812;BME280;71243;51.848;5.768;2023-07-29T01:32:11;100745.66;;;18.56;82.51
81812;BME280;71243;51.848;5.768;2023-07-29T01:34:47;100742.56;;;18.59;82.48
81812;BME280;71243;51.848;5.768;2023-07-29T01:37:19;100744.84;;;18.56;82.91
81812;BME280;71243;51.848;5.768;2023-07-29T01:39:49;100753.50;;;18.58;82.82
81812;BME280;71243;51.848;5.768;2023-07-29T01:42:15;100749.16;;;18.57;82.78
81812;BME280;71243;51.848;5.768;2023-07-29T01:44:40;100751.19;;;18.55;82.99
81812;BME280;71243;51.848;5.768;2023-07-29T01:47:06;100753.28;;;18.53;83.38
81812;BME280;71243;51.848;5.768;2023-07-29T01:49:31;100752.81;;;18.43;83.74
81812;BME280;71243;51.848;5.768;2023-07-29T01:51:56;100765.59;;;18.47;83.35
81812;BME280;71243;51.848;5.768;2023-07-29T01:54:21;100749.75;;;18.46;83.99
81812;BME280;71243;51.848;5.768;2023-07-29T01:56:47;100749.13;;;18.50;83.36
81812;BME280;71243;51.848;5.768;2023-07-29T01:59:12;100748.50;;;18.55;83.10
81812;BME280;71243;51.848;5.768;2023-07-29T02:01:37;100745.47;;;18.58;83.04
81812;BME280;71243;51.848;5.768;2023-07-29T02:04:02;100746.88;;;18.54;83.70
81812;BME280;71243;51.848;5.768;2023-07-29T02:06:28;100745.03;;;18.54;83.49
81812;BME280;71243;51.848;5.768;2023-07-29T02:08:54;100739.91;;;18.59;83.20
81812;BME280;71243;51.848;5.768;2023-07-29T02:11:19;100748.09;;;18.51;83.69
81812;BME280;71243;51.848;5.768;2023-07-29T02:13:44;100746.25;;;18.45;84.28
81812;BME280;71243;51.848;5.768;2023-07-29T02:16:10;100754.28;;;18.45;83.63
81812;BME280;71243;51.848;5.768;2023-07-29T02:18:35;100746.19;;;18.39;84.20
81812;BME280;71243;51.848;5.768;2023-07-29T02:21:00;100756.13;;;18.45;84.31
81812;BME280;71243;51.848;5.768;2023-07-29T02:23:25;100748.69;;;18.40;84.25
81812;BME280;71243;51.848;5.768;2023-07-29T02:25:50;100742.50;;;18.40;83.79
81812;BME280;71243;51.848;5.768;2023-07-29T02:28:16;100743.69;;;18.37;83.71
81812;BME280;71243;51.848;5.768;2023-07-29T02:30:41;100741.00;;;18.31;83.59
81812;BME280;71243;51.848;5.768;2023-07-29T02:33:06;100755.22;;;18.38;83.51
81812;BME280;71243;51.848;5.768;2023-07-29T02:35:32;100750.50;;;18.40;82.62
81812;BME280;71243;51.848;5.768;2023-07-29T02:37:57;100748.25;;;18.37;82.02
81812;BME280;71243;51.848;5.768;2023-07-29T02:40:22;100738.97;;;18.39;82.17
81812;BME280;71243;51.848;5.768;2023-07-29T02:42:47;100727.47;;;18.39;81.55
81812;BME280;71243;51.848;5.768;2023-07-29T02:45:13;100730.53;;;18.36;81.26
81812;BME280;71243;51.848;5.768;2023-07-29T02:47:38;100735.31;;;18.40;80.71
81812;BME280;71243;51.848;5.768;2023-07-29T02:50:04;100730.09;;;18.32;80.84
81812;BME280;71243;51.848;5.768;2023-07-29T02:52:29;100734.25;;;18.35;80.71
81812;BME280;71243;51.848;5.768;2023-07-29T02:54:54;100740.00;;;18.32;81.24
81812;BME280;71243;51.848;5.768;2023-07-29T02:57:19;100734.47;;;18.40;80.63
81812;BME280;71243;51.848;5.768;2023-07-29T02:59:45;100734.25;;;18.35;80.95
81812;BME280;71243;51.848;5.768;2023-07-29T03:02:10;100736.91;;;18.35;80.85
81812;BME280;71243;51.848;5.768;2023-07-29T03:04:35;100726.22;;;18.35;80.62
81812;BME280;71243;51.848;5.768;2023-07-29T03:07:00;100735.88;;;18.36;80.81
81812;BME280;71243;51.848;5.768;2023-07-29T03:09:25;100741.22;;;18.29;80.56
81812;BME280;71243;51.848;5.768;2023-07-29T03:11:51;100737.94;;;18.34;80.39
81812;BME280;71243;51.848;5.768;2023-07-29T03:14:16;100726.63;;;18.38;80.42
81812;BME280;71243;51.848;5.768;2023-07-29T03:16:41;100726.22;;;18.28;80.30
81812;BME280;71243;51.848;5.768;2023-07-29T03:19:06;100734.59;;;18.25;80.21
81812;BME280;71243;51.848;5.768;2023-07-29T03:21:31;100725.38;;;18.28;79.80
81812;BME280;71243;51.848;5.768;2023-07-29T03:23:57;100719.38;;;18.19;79.50
81812;BME280;71243;51.848;5.768;2023-07-29T03:26:22;100719.38;;;18.19;79.43
81812;BME280;71243;51.848;5.768;2023-07-29T03:28:47;100712.56;;;18.17;79.30
81812;BME280;71243;51.848;5.768;2023-07-29T03:31:12;100712.78;;;18.15;79.36
81812;BME280;71243;51.848;5.768;2023-07-29T03:33:38;100715.66;;;18.14;78.73
81812;BME280;71243;51.848;5.768;2023-07-29T03:36:03;100726.34;;;18.14;79.13
81812;BME280;71243;51.848;5.768;2023-07-29T03:38:28;100716.88;;;18.11;78.65
81812;BME280;71243;51.848;5.768;2023-07-29T03:40:53;100720.16;;;18.07;78.37
81812;BME280;71243;51.848;5.768;2023-07-29T03:43:19;100717.47;;;18.00;78.36
81812;BME280;71243;51.848;5.768;2023-07-29T03:45:44;100733.94;;;18.04;78.38
81812;BME280;71243;51.848;5.768;2023-07-29T03:48:09;100724.44;;;18.01;78.74
81812;BME280;71243;51.848;5.768;2023-07-29T03:50:35;100713.31;;;17.98;77.99
81812;BME280;71243;51.848;5.768;2023-07-29T03:53:01;100719.88;;;17.95;78.53
81812;BME280;71243;51.848;5.768;2023-07-29T03:55:27;100721.31;;;17.91;78.69
81812;BME280;71243;51.848;5.768;2023-07-29T03:57:52;100723.38;;;17.89;78.07
81812;BME280;71243;51.848;5.768;2023-07-29T04:00:17;100710.56;;;17.85;78.21
81812;BME280;71243;51.848;5.768;2023-07-29T04:02:43;100723.50;;;17.81;78.52
81812;BME280;71243;51.848;5.768;2023-07-29T04:05:08;100729.66;;;17.75;78.51
81812;BME280;71243;51.848;5.768;2023-07-29T04:07:34;100732.13;;;17.70;78.63
81812;BME280;71243;51.848;5.768;2023-07-29T04:10:00;100727.38;;;17.72;78.13
81812;BME280;71243;51.848;5.768;2023-07-29T04:12:25;100732.69;;;17.66;78.49
81812;BME280;71243;51.848;5.768;2023-07-29T04:14:50;100728.19;;;17.66;78.59
81812;BME280;71243;51.848;5.768;2023-07-29T04:17:15;100724.66;;;17.66;78.03
81812;BME280;71243;51.848;5.768;2023-07-29T04:19:41;100720.94;;;17.60;77.95
81812;BME280;71243;51.848;5.768;2023-07-29T04:22:06;100711.41;;;17.51;77.95
81812;BME280;71243;51.848;5.768;2023-07-29T04:24:32;100705.91;;;17.52;78.00
81812;BME280;71243;51.848;5.768;2023-07-29T04:26:57;100696.44;;;17.57;78.01
81812;BME280;71243;51.848;5.768;2023-07-29T04:29:23;100687.03;;;17.61;78.12
81812;BME280;71243;51.848;5.768;2023-07-29T04:31:49;100690.75;;;17.60;77.49
81812;BME280;71243;51.848;5.768;2023-07-29T04:34:15;100693.78;;;17.57;77.86
81812;BME280;71243;51.848;5.768;2023-07-29T04:36:40;100693.78;;;17.57;77.74
81812;BME280;71243;51.848;5.768;2023-07-29T04:39:06;100701.16;;;17.54;78.31
81812;BME280;71243;51.848;5.768;2023-07-29T04:41:31;100708.59;;;17.59;77.68
81812;BME280;71243;51.848;5.768;2023-07-29T04:43:56;100715.16;;;17.57;77.93
81812;BME280;71243;51.848;5.768;2023-07-29T04:46:21;100726.66;;;17.50;77.65
81812;BME280;71243;51.848;5.768;2023-07-29T04:48:46;100735.88;;;17.48;77.58
81812;BME280;71243;51.848;5.768;2023-07-29T04:51:12;100743.78;;;17.35;78.20
81812;BME280;71243;51.848;5.768;2023-07-29T04:53:37;100757.66;;;17.24;78.94
81812;BME280;71243;51.848;5.768;2023-07-29T04:56:02;100756.41;;;17.26;79.47
81812;BME280;71243;51.848;5.768;2023-07-29T04:58:28;100758.97;;;17.34;79.04
81812;BME280;71243;51.848;5.768;2023-07-29T05:00:53;100747.59;;;17.26;79.31
81812;BME280;71243;51.848;5.768;2023-07-29T05:03:18;100744.06;;;17.19;79.61
81812;BME280;71243;51.848;5.768;2023-07-29T05:05:43;100748.16;;;17.21;80.12
81812;BME280;71243;51.848;5.768;2023-07-29T05:08:08;100756.84;;;17.30;79.76
81812;BME280;71243;51.848;5.768;2023-07-29T05:10:34;100755.41;;;17.27;79.41
81812;BME280;71243;51.848;5.768;2023-07-29T05:12:59;100764.00;;;17.23;78.90
81812;BME280;71243;51.848;5.768;2023-07-29T05:15:25;100764.44;;;17.26;79.14
81812;BME280;71243;51.848;5.768;2023-07-29T05:17:50;100761.06;;;17.18;79.43
81812;BME280;71243;51.848;5.768;2023-07-29T05:20:15;100747.97;;;17.23;79.25
81812;BME280;71243;51.848;5.768;2023-07-29T05:22:41;100765.47;;;17.25;79.62
81812;BME280;71243;51.848;5.768;2023-07-29T05:25:06;100763.63;;;17.26;79.24
81812;BME280;71243;51.848;5.768;2023-07-29T05:27:32;100764.69;;;17.31;79.25
81812;BME280;71243;51.848;5.768;2023-07-29T05:29:57;100760.22;;;17.38;78.80
81812;BME280;71243;51.848;5.768;2023-07-29T05:32:22;100765.19;;;17.41;78.31
81812;BME280;71243;51.848;5.768;2023-07-29T05:34:47;100763.28;;;17.35;78.71
81812;BME280;71243;51.848;5.768;2023-07-29T05:37:12;100766.34;;;17.32;78.80
81812;BME280;71243;51.848;5.768;2023-07-29T05:39:38;100767.41;;;17.38;79.25
81812;BME280;71243;51.848;5.768;2023-07-29T05:42:03;100771.69;;;17.32;78.88
81812;BME280;71243;51.848;5.768;2023-07-29T05:44:28;100771.25;;;17.29;79.15
81812;BME280;71243;51.848;5.768;2023-07-29T05:46:54;100787.25;;;17.29;78.82
81812;BME280;71243;51.848;5.768;2023-07-29T05:49:19;100773.91;;;17.29;79.37
81812;BME280;71243;51.848;5.768;2023-07-29T05:51:44;100791.56;;;17.30;79.83
81812;BME280;71243;51.848;5.768;2023-07-29T05:54:09;100782.38;;;17.32;79.20
81812;BME280;71243;51.848;5.768;2023-07-29T05:56:35;100778.50;;;17.35;79.35
81812;BME280;71243;51.848;5.768;2023-07-29T05:59:00;100775.44;;;17.38;78.98
81812;BME280;71243;51.848;5.768;2023-07-29T06:01:26;100782.66;;;17.44;79.00
81812;BME280;71243;51.848;5.768;2023-07-29T06:03:51;100775.28;;;17.46;78.67
81812;BME280;71243;51.848;5.768;2023-07-29T06:06:16;100772.25;;;17.49;79.12
81812;BME280;71243;51.848;5.768;2023-07-29T06:08:41;100777.66;;;17.56;78.71
81812;BME280;71243;51.848;5.768;2023-07-29T06:11:06;100770.25;;;17.58;78.52
81812;BME280;71243;51.848;5.768;2023-07-29T06:13:32;100768.22;;;17.60;78.38
81812;BME280;71243;51.848;5.768;2023-07-29T06:15:57;100781.63;;;17.66;78.08
81812;BME280;71243;51.848;5.768;2023-07-29T06:18:23;100777.34;;;17.72;78.11
81812;BME280;71243;51.848;5.768;2023-07-29T06:20:48;100770.41;;;17.84;77.80
81812;BME280;71243;51.848;5.768;2023-07-29T06:23:13;100779.88;;;17.86;77.80
81812;BME280;71243;51.848;5.768;2023-07-29T06:25:38;100773.16;;;17.97;77.15
81812;BME280;71243;51.848;5.768;2023-07-29T06:28:04;100781.03;;;18.05;77.71
81812;BME280;71243;51.848;5.768;2023-07-29T06:30:29;100772.03;;;18.19;76.95
81812;BME280;71243;51.848;5.768;2023-07-29T06:32:54;100779.00;;;18.13;76.24
81812;BME280;71243;51.848;5.768;2023-07-29T06:35:19;100772.88;;;18.19;76.72
81812;BME280;71243;51.848;5.768;2023-07-29T06:37:44;100783.78;;;18.24;76.31
81812;BME280;71243;51.848;5.768;2023-07-29T06:40:10;100772.69;;;18.34;76.38
81812;BME280;71243;51.848;5.768;2023-07-29T06:42:35;100774.22;;;18.43;75.61
81812;BME280;71243;51.848;5.768;2023-07-29T06:45:00;100782.25;;;18.43;75.88
81812;BME280;71243;51.848;5.768;2023-07-29T06:47:25;100790.06;;;18.44;75.56
81812;BME280;71243;51.848;5.768;2023-07-29T06:49:51;100789.47;;;18.49;75.39
81812;BME280;71243;51.848;5.768;2023-07-29T06:52:16;100790.50;;;18.48;75.55
81812;BME280;71243;51.848;5.768;2023-07-29T06:54:41;100789.63;;;18.41;75.71
81812;BME280;71243;51.848;5.768;2023-07-29T06:57:06;100788.84;;;18.47;75.64
81812;BME280;71243;51.848;5.768;2023-07-29T06:59:32;100789.69;;;18.47;75.84
81812;BME280;71243;51.848;5.768;2023-07-29T07:01:57;100791.94;;;18.50;75.88
81812;BME280;71243;51.848;5.768;2023-07-29T07:04:22;100792.59;;;18.52;75.59
81812;BME280;71243;51.848;5.768;2023-07-29T07:06:47;100787.03;;;18.60;75.35
81812;BME280;71243;51.848;5.768;2023-07-29T07:09:12;100786.44;;;18.65;75.21
81812;BME280;71243;51.848;5.768;2023-07-29T07:11:38;100789.97;;;18.72;75.02
81812;BME280;71243;51.848;5.768;2023-07-29T07:14:03;100788.34;;;18.78;75.15
81812;BME280;71243;51.848;5.768;2023-07-29T07:16:28;100792.06;;;18.90;74.07
81812;BME280;71243;51.848;5.768;2023-07-29T07:18:53;100792.28;;;18.95;74.16
81812;BME280;71243;51.848;5.768;2023-07-29T07:21:19;100798.47;;;19.02;74.27
81812;BME280;71243;51.848;5.768;2023-07-29T07:23:44;100814.75;;;19.07;74.25
81812;BME280;71243;51.848;5.768;2023-07-29T07:26:09;100802.81;;;19.09;74.21
81812;BME280;71243;51.848;5.768;2023-07-29T07:28:34;100798.47;;;19.15;73.85
81812;BME280;71243;51.848;5.768;2023-07-29T07:30:59;100796.19;;;19.18;74.17
81812;BME280;71243;51.848;5.768;2023-07-29T07:33:25;100788.97;;;19.25;74.02
81812;BME280;71243;51.848;5.768;2023-07-29T07:35:50;100802.44;;;19.38;73.28
81812;BME280;71243;51.848;5.768;2023-07-29T07:38:15;100796.47;;;19.43;73.09
81812;BME280;71243;51.848;5.768;2023-07-29T07:40:40;100792.72;;;19.50;72.13
81812;BME280;71243;51.848;5.768;2023-07-29T07:43:05;100802.41;;;19.64;72.43
81812;BME280;71243;51.848;5.768;2023-07-29T07:45:32;100802.63;;;19.76;72.75
81812;BME280;71243;51.848;5.768;2023-07-29T07:47:57;100802.41;;;19.71;71.92
81812;BME280;71243;51.848;5.768;2023-07-29T07:50:22;100808.38;;;19.66;72.38
81812;BME280;71243;51.848;5.768;2023-07-29T07:52:47;100803.00;;;19.73;73.02
81812;BME280;71243;51.848;5.768;2023-07-29T07:55:13;100798.47;;;19.80;72.04
81812;BME280;71243;51.848;5.768;2023-07-29T07:57:38;100811.47;;;19.83;72.34
81812;BME280;71243;51.848;5.768;2023-07-29T08:00:04;100813.94;;;19.85;72.54
81812;BME280;71243;51.848;5.768;2023-07-29T08:02:29;100808.78;;;19.83;71.93
81812;BME280;71243;51.848;5.768;2023-07-29T08:04:54;100816.84;;;19.83;71.57
81812;BME280;71243;51.848;5.768;2023-07-29T08:07:20;100813.94;;;19.85;71.43
81812;BME280;71243;51.848;5.768;2023-07-29T08:09:45;100816.22;;;19.81;72.02
81812;BME280;71243;51.848;5.768;2023-07-29T08:12:10;100812.75;;;19.67;72.27
81812;BME280;71243;51.848;5.768;2023-07-29T08:14:35;100808.38;;;19.66;72.27
81812;BME280;71243;51.848;5.768;2023-07-29T08:17:00;100813.75;;;19.66;72.30
81812;BME280;71243;51.848;5.768;2023-07-29T08:19:26;100812.09;;;19.79;72.60
81812;BME280;71243;51.848;5.768;2023-07-29T08:21:51;100814.56;;;19.87;71.82
81812;BME280;71243;51.848;5.768;2023-07-29T08:24:17;100817.19;;;20.00;71.98
81812;BME280;71243;51.848;5.768;2023-07-29T08:26:42;100816.78;;;20.09;71.32
81812;BME280;71243;51.848;5.768;2023-07-29T08:29:07;100818.41;;;20.10;70.03
81812;BME280;71243;51.848;5.768;2023-07-29T08:31:32;100806.66;;;20.05;70.18
81812;BME280;71243;51.848;5.768;2023-07-29T08:33:57;100824.81;;;20.09;70.81
81812;BME280;71243;51.848;5.768;2023-07-29T08:36:23;100816.59;;;20.04;69.34
81812;BME280;71243;51.848;5.768;2023-07-29T08:38:48;100827.06;;;20.12;70.16
81812;BME280;71243;51.848;5.768;2023-07-29T08:41:16;100817.59;;;20.10;69.70
81812;BME280;71243;51.848;5.768;2023-07-29T08:44:18;100814.06;;;20.22;70.06
81812;BME280;71243;51.848;5.768;2023-07-29T08:46:45;100822.66;;;20.44;69.66
81812;BME280;71243;51.848;5.768;2023-07-29T08:49:11;100816.06;;;20.46;68.36
81812;BME280;71243;51.848;5.768;2023-07-29T08:51:38;100816.63;;;20.55;68.02
81812;BME280;71243;51.848;5.768;2023-07-29T08:54:03;100820.31;;;20.60;67.60
81812;BME280;71243;51.848;5.768;2023-07-29T08:56:29;100819.44;;;20.66;66.52
81812;BME280;71243;51.848;5.768;2023-07-29T08:58:55;100824.63;;;20.68;67.27
81812;BME280;71243;51.848;5.768;2023-07-29T09:01:20;100815.75;;;20.67;66.88
81812;BME280;71243;51.848;5.768;2023-07-29T09:03:45;100820.50;;;20.65;67.73
81812;BME280;71243;51.848;5.768;2023-07-29T09:06:11;100829.88;;;20.50;68.21
81812;BME280;71243;51.848;5.768;2023-07-29T09:08:37;100827.44;;;20.35;68.73
81812;BME280;71243;51.848;5.768;2023-07-29T09:11:02;100834.72;;;20.22;69.27
81812;BME280;71243;51.848;5.768;2023-07-29T09:13:28;100829.34;;;20.22;69.39
81812;BME280;71243;51.848;5.768;2023-07-29T09:15:59;100825.19;;;20.26;69.74
81812;BME280;71243;51.848;5.768;2023-07-29T09:18:26;100818.59;;;20.28;68.86
81812;BME280;71243;51.848;5.768;2023-07-29T09:20:52;100822.66;;;20.44;69.20
81812;BME280;71243;51.848;5.768;2023-07-29T09:23:18;100813.09;;;20.61;69.60
81812;BME280;71243;51.848;5.768;2023-07-29T09:25:46;100810.94;;;20.76;68.88
81812;BME280;71243;51.848;5.768;2023-07-29T09:28:13;100805.28;;;20.91;67.96
81812;BME280;71243;51.848;5.768;2023-07-29T09:30:47;100807.94;;;20.97;66.85
81812;BME280;71243;51.848;5.768;2023-07-29T09:33:13;100798.66;;;21.00;66.49
81812;BME280;71243;51.848;5.768;2023-07-29T09:35:38;100798.81;;;21.05;67.23
81812;BME280;71243;51.848;5.768;2023-07-29T09:38:05;100793.72;;;21.21;65.43
81812;BME280;71243;51.848;5.768;2023-07-29T09:40:37;100794.31;;;21.23;65.42
81812;BME280;71243;51.848;5.768;2023-07-29T09:43:04;100789.34;;;21.27;65.62
81812;BME280;71243;51.848;5.768;2023-07-29T09:45:33;100791.56;;;21.30;65.25
81812;BME280;71243;51.848;5.768;2023-07-29T09:47:58;100796.03;;;21.18;65.34
81812;BME280;71243;51.848;5.768;2023-07-29T09:50:24;100799.16;;;21.15;65.97
81812;BME280;71243;51.848;5.768;2023-07-29T09:52:51;100793.31;;;21.18;66.68
81812;BME280;71243;51.848;5.768;2023-07-29T09:55:21;100793.72;;;21.21;65.99
81812;BME280;71243;51.848;5.768;2023-07-29T09:57:46;100799.06;;;21.28;66.17
81812;BME280;71243;51.848;5.768;2023-07-29T10:00:12;100795.78;;;21.19;66.15
81812;BME280;71243;51.848;5.768;2023-07-29T10:02:40;100794.09;;;21.25;65.53
81812;BME280;71243;51.848;5.768;2023-07-29T10:05:07;100787.41;;;21.34;65.93
81812;BME280;71243;51.848;5.768;2023-07-29T10:07:33;100787.09;;;21.48;65.05
81812;BME280;71243;51.848;5.768;2023-07-29T10:09:59;100786.78;;;21.56;64.99
81812;BME280;71243;51.848;5.768;2023-07-29T10:12:25;100787.84;;;21.55;64.46
81812;BME280;71243;51.848;5.768;2023-07-29T10:14:50;100790.53;;;21.80;64.52
81812;BME280;71243;51.848;5.768;2023-07-29T10:17:19;100798.41;;;22.00;63.89
81812;BME280;71243;51.848;5.768;2023-07-29T10:19:46;100796.97;;;21.97;63.85
81812;BME280;71243;51.848;5.768;2023-07-29T10:22:12;100796.38;;;21.95;63.53
81812;BME280;71243;51.848;5.768;2023-07-29T10:24:39;100791.38;;;21.99;62.62
81812;BME280;71243;51.848;5.768;2023-07-29T10:27:06;100786.97;;;22.04;63.21
81812;BME280;71243;51.848;5.768;2023-07-29T10:29:36;100792.72;;;22.26;62.29
81812;BME280;71243;51.848;5.768;2023-07-29T10:32:04;100796.44;;;22.43;61.89
81812;BME280;71243;51.848;5.768;2023-07-29T10:34:31;100792.78;;;22.55;60.78
81812;BME280;71243;51.848;5.768;2023-07-29T10:36:57;100795.84;;;22.59;61.36
81812;BME280;71243;51.848;5.768;2023-07-29T10:39:24;100792.13;;;22.60;59.45
81812;BME280;71243;51.848;5.768;2023-07-29T10:42:05;100801.16;;;22.47;59.52
81812;BME280;71243;51.848;5.768;2023-07-29T10:47:18;100789.09;;;22.50;60.43
81812;BME280;71243;51.848;5.768;2023-07-29T10:49:45;100795.31;;;22.50;59.45
81812;BME280;71243;51.848;5.768;2023-07-29T10:52:27;100786.44;;;22.32;59.52
81812;BME280;71243;51.848;5.768;2023-07-29T10:54:53;100785.38;;;22.33;60.06
81812;BME280;71243;51.848;5.768;2023-07-29T10:57:36;100779.41;;;22.31;59.91
81812;BME280;71243;51.848;5.768;2023-07-29T11:00:03;100779.00;;;22.45;59.08
81812;BME280;71243;51.848;5.768;2023-07-29T11:02:35;100782.50;;;22.64;59.98
81812;BME280;71243;51.848;5.768;2023-07-29T11:05:15;100782.94;;;22.79;58.53
81812;BME280;71243;51.848;5.768;2023-07-29T11:07:48;100782.47;;;22.94;58.84
81812;BME280;71243;51.848;5.768;2023-07-29T11:10:14;100782.81;;;22.85;58.88
81812;BME280;71243;51.848;5.768;2023-07-29T11:17:43;100775.81;;;22.84;58.81
81812;BME280;71243;51.848;5.768;2023-07-29T11:20:09;100778.75;;;22.95;58.72
81812;BME280;71243;51.848;5.768;2023-07-29T11:22:35;100778.06;;;22.99;58.64
81812;BME280;71243;51.848;5.768;2023-07-29T11:25:01;100779.84;;;23.05;57.63
81812;BME280;71243;51.848;5.768;2023-07-29T11:27:26;100780.19;;;23.09;57.89
81812;BME280;71243;51.848;5.768;2023-07-29T11:29:57;100777.81;;;23.01;57.63
81812;BME280;71243;51.848;5.768;2023-07-29T11:32:22;100771.13;;;22.92;57.78
81812;BME280;71243;51.848;5.768;2023-07-29T11:34:47;100774.16;;;22.83;57.76
81812;BME280;71243;51.848;5.768;2023-07-29T11:37:13;100772.56;;;22.64;58.38
81812;BME280;71243;51.848;5.768;2023-07-29T11:39:41;100773.16;;;22.66;59.46
81812;BME280;71243;51.848;5.768;2023-07-29T11:42:10;100790.72;;;22.69;59.23
81812;BME280;71243;51.848;5.768;2023-07-29T11:44:36;100791.34;;;22.53;58.92
81812;BME280;71243;51.848;5.768;2023-07-29T11:47:02;100803.16;;;22.34;60.33
81812;BME280;71243;51.848;5.768;2023-07-29T11:49:27;100811.34;;;22.27;62.37
81812;BME280;71243;51.848;5.768;2023-07-29T11:51:52;100832.50;;;22.24;65.07
81812;BME280;71243;51.848;5.768;2023-07-29T11:54:18;100836.56;;;21.65;69.31
81812;BME280;71243;51.848;5.768;2023-07-29T11:56:44;100856.88;;;21.37;70.04
81812;BME280;71243;51.848;5.768;2023-07-29T11:59:09;100866.78;;;21.12;71.29
81812;BME280;71243;51.848;5.768;2023-07-29T12:01:34;100860.81;;;20.59;72.89
81812;BME280;71243;51.848;5.768;2023-07-29T12:04:00;100832.78;;;20.42;72.73
81812;BME280;71243;51.848;5.768;2023-07-29T12:06:26;100839.25;;;20.21;73.27
81812;BME280;71243;51.848;5.768;2023-07-29T12:08:51;100826.88;;;20.07;74.01
81812;BME280;71243;51.848;5.768;2023-07-29T12:11:17;100826.47;;;20.04;73.88
81812;BME280;71243;51.848;5.768;2023-07-29T12:13:43;100823.19;;;20.02;75.15
81812;BME280;71243;51.848;5.768;2023-07-29T12:16:08;100829.78;;;20.06;75.19
81812;BME280;71243;51.848;5.768;2023-07-29T12:18:33;100833.06;;;20.01;74.90
81812;BME280;71243;51.848;5.768;2023-07-29T12:20:59;100837.22;;;19.91;74.41
81812;BME280;71243;51.848;5.768;2023-07-29T12:23:26;100824.91;;;19.63;75.95
81812;BME280;71243;51.848;5.768;2023-07-29T12:25:58;100825.50;;;19.59;74.22
81812;BME280;71243;51.848;5.768;2023-07-29T12:28:24;100820.56;;;19.49;75.04
81812;BME280;71243;51.848;5.768;2023-07-29T12:30:53;100830.25;;;19.50;75.30
81812;BME280;71243;51.848;5.768;2023-07-29T12:33:32;100833.38;;;19.41;76.27
81812;BME280;71243;51.848;5.768;2023-07-29T12:35:58;100830.88;;;19.33;76.50
81812;BME280;71243;51.848;5.768;2023-07-29T12:38:26;100839.88;;;19.25;77.08
81812;BME280;71243;51.848;5.768;2023-07-29T12:40:51;100845.31;;;19.38;78.38
81812;BME280;71243;51.848;5.768;2023-07-29T12:43:16;100856.84;;;19.52;77.54
81812;BME280;71243;51.848;5.768;2023-07-29T12:45:42;100867.97;;;19.49;77.22
81812;BME280;71243;51.848;5.768;2023-07-29T12:48:08;100865.09;;;19.50;77.27
81812;BME280;71243;51.848;5.768;2023-07-29T12:50:33;100870.25;;;19.45;78.40
81812;BME280;71243;51.848;5.768;2023-07-29T12:52:58;100859.72;;;19.50;78.83
81812;BME280;71243;51.848;5.768;2023-07-29T12:55:23;100858.50;;;19.59;79.57
81812;BME280;71243;51.848;5.768;2023-07-29T12:57:49;100853.13;;;19.79;79.99